Time;durP1;ratioP1;P1;durP2;ratioP2;P2;SDS_P1;SDS_P2;PMS_P1;PMS_P2;Temp;Humidity;BMP_temperature;BMP_pressure;BME280_temperature;BME280_humidity;BME280_pressure;Samples;Min_cycle;Max_cycle;Signal;HPM_P1;HPM_P2
2022/01/30 00:01:43;;;;;;;;;;;;;;;0.49;100.00;100766.91;5010663;28;20342;-63
2022/01/30 00:04:08;;;;;;;;;;;;;;;-0.05;100.00;100763.84;5010868;28;19939;-63
2022/01/30 00:06:33;;;;;;;;;;;;;;;-0.23;100.00;100760.81;5010862;28;19964;-63
2022/01/30 00:08:59;;;;;;;;;;;;;;;0.05;100.00;100752.44;5011330;28;20303;-63
2022/01/30 00:11:29;;;;;;;;;;;;;;;0.39;100.00;100755.00;5010725;28;19914;-63
2022/01/30 00:13:54;;;;;;;;;;;;;;;0.63;100.00;100748.97;5009702;28;19913;-63
2022/01/30 00:16:22;;;;;;;;;;;;;;;0.69;100.00;100738.25;5010950;28;19910;-63
2022/01/30 00:19:00;;;;;;;;;;;;;;;0.52;100.00;100731.97;5009437;28;19977;-63
2022/01/30 00:24:01;;;;;;;;;;;;;;;0.37;100.00;100729.13;5010725;28;19948;-63
2022/01/30 00:26:30;;;;;;;;;;;;;;;0.28;100.00;100728.91;5010850;28;20014;-63
2022/01/30 00:28:56;;;;;;;;;;;;;;;-0.08;100.00;100728.78;5010747;28;19914;-63
2022/01/30 00:31:23;;;;;;;;;;;;;;;-0.30;100.00;100729.84;5010764;28;20391;-63
2022/01/30 00:33:49;;;;;;;;;;;;;;;-0.20;100.00;100735.94;5010757;28;20387;-63
2022/01/30 00:36:14;;;;;;;;;;;;;;;0.04;100.00;100738.25;5010454;28;19918;-63
2022/01/30 00:38:39;;;;;;;;;;;;;;;-0.26;100.00;100733.28;5009112;28;19913;-63
2022/01/30 00:41:05;;;;;;;;;;;;;;;-0.15;100.00;100729.41;5010649;28;19925;-63
2022/01/30 00:43:30;;;;;;;;;;;;;;;-0.62;100.00;100732.25;5010520;28;20005;-63
2022/01/30 00:45:55;;;;;;;;;;;;;;;-0.48;100.00;100731.00;5012761;28;20369;-63
2022/01/30 00:48:21;;;;;;;;;;;;;;;-0.25;100.00;100720.84;5013038;28;19914;-63
2022/01/30 00:50:46;;;;;;;;;;;;;;;-0.69;100.00;100706.25;5014456;28;20379;-63
2022/01/30 00:53:11;;;;;;;;;;;;;;;-0.62;100.00;100702.28;5014049;28;19921;-63
2022/01/30 00:55:37;;;;;;;;;;;;;;;-0.89;100.00;100697.34;5014469;28;19914;-63
2022/01/30 00:58:03;;;;;;;;;;;;;;;-0.65;100.00;100698.06;5014070;28;20361;-62
2022/01/30 01:03:04;;;;;;;;;;;;;;;-0.85;100.00;100685.84;4875901;23;19922;-62
2022/01/30 01:05:31;;;;;;;;;;;;;;;-0.75;100.00;100673.63;4303874;28;10019923;-62
2022/01/30 01:07:59;;;;;;;;;;;;;;;-0.92;100.00;100674.81;5013609;28;19921;-62
2022/01/30 01:25:49;;;;;;;;;;;;;;;-1.04;100.00;100637.03;5013731;28;19913;-62
2022/01/30 01:28:14;;;;;;;;;;;;;;;-0.70;100.00;100619.72;5013583;28;20482;-62
2022/01/30 01:30:39;;;;;;;;;;;;;;;-1.33;100.00;100616.25;5013499;28;19914;-62
2022/01/30 01:33:06;;;;;;;;;;;;;;;-0.92;100.00;100604.97;5013156;28;19917;-62
2022/01/30 01:35:31;;;;;;;;;;;;;;;-0.78;100.00;100593.72;5012123;28;20334;-62
2022/01/30 01:37:57;;;;;;;;;;;;;;;-1.09;100.00;100533.81;5013142;28;19967;-62
2022/01/30 01:40:22;;;;;;;;;;;;;;;-0.71;100.00;100594.72;5013193;28;19917;-62
2022/01/30 01:42:47;;;;;;;;;;;;;;;-1.31;100.00;100591.38;5012002;28;19913;-62
2022/01/30 01:45:20;;;;;;;;;;;;;;;-1.28;100.00;100587.31;5013062;28;20443;-62
2022/01/30 01:47:45;;;;;;;;;;;;;;;-1.24;100.00;100589.09;5013130;28;19913;-62
2022/01/30 01:50:17;;;;;;;;;;;;;;;-1.34;100.00;100586.28;5013157;28;19916;-62
2022/01/30 01:52:42;;;;;;;;;;;;;;;-0.80;100.00;100589.47;5012610;28;20390;-62
2022/01/30 01:55:08;;;;;;;;;;;;;;;-1.21;100.00;100581.69;5012877;28;19914;-63
2022/01/30 01:57:33;;;;;;;;;;;;;;;-0.88;100.00;100572.66;5011667;28;20417;-62
2022/01/30 01:59:59;;;;;;;;;;;;;;;-0.97;100.00;100569.09;5012640;28;20411;-62
2022/01/30 02:02:26;;;;;;;;;;;;;;;-0.93;100.00;100565.84;5013187;28;19921;-62
2022/01/30 02:04:52;;;;;;;;;;;;;;;-1.17;100.00;100558.53;5012862;28;19963;-61
2022/01/30 02:10:01;;;;;;;;;;;;;;;-0.65;100.00;100557.47;5012813;28;20020;-62
2022/01/30 02:12:34;;;;;;;;;;;;;;;-0.82;100.00;100547.03;5012288;28;20004;-62
2022/01/30 02:25:43;;;;;;;;;;;;;;;-1.20;100.00;100565.09;5012199;28;19948;-62
2022/01/30 02:28:13;;;;;;;;;;;;;;;-1.38;100.00;100567.91;5012346;28;19920;-62
2022/01/30 02:30:43;;;;;;;;;;;;;;;-1.37;100.00;100562.13;5012448;28;20008;-62
2022/01/30 02:33:09;;;;;;;;;;;;;;;-1.28;100.00;100564.00;5012076;28;20361;-63
2022/01/30 02:35:34;;;;;;;;;;;;;;;-1.42;100.00;100552.78;5012213;28;20037;-61
2022/01/30 02:38:01;;;;;;;;;;;;;;;-1.41;100.00;100547.88;5012048;28;19914;-62
2022/01/30 02:40:27;;;;;;;;;;;;;;;-1.52;100.00;100544.22;5011819;28;19924;-62
2022/01/30 02:42:54;;;;;;;;;;;;;;;-1.47;100.00;100541.88;5012109;28;19917;-61
2022/01/30 02:45:22;;;;;;;;;;;;;;;-1.62;100.00;100539.75;5012194;28;19998;-62
2022/01/30 02:47:58;;;;;;;;;;;;;;;-1.80;100.00;100529.25;5011898;28;19914;-61
2022/01/30 02:50:37;;;;;;;;;;;;;;;-1.39;100.00;100523.00;5012105;28;19972;-62
2022/01/30 02:53:05;;;;;;;;;;;;;;;-1.57;100.00;100513.34;5011669;28;20027;-63
2022/01/30 02:55:30;;;;;;;;;;;;;;;-1.69;100.00;100504.66;5011900;28;19917;-62
2022/01/30 02:57:56;;;;;;;;;;;;;;;-1.87;100.00;100503.31;5012005;28;19913;-62
2022/01/30 03:00:21;;;;;;;;;;;;;;;-1.86;100.00;100495.03;5011847;28;19914;-62
2022/01/30 03:02:46;;;;;;;;;;;;;;;-2.17;100.00;100486.59;5011586;28;19921;-63
2022/01/30 03:05:12;;;;;;;;;;;;;;;-1.89;100.00;100476.69;5011554;28;19913;-64
2022/01/30 03:07:37;;;;;;;;;;;;;;;-2.44;100.00;100463.34;5011092;28;20383;-64
2022/01/30 03:10:03;;;;;;;;;;;;;;;-2.31;100.00;100468.75;5011530;28;19917;-64
2022/01/30 03:12:28;;;;;;;;;;;;;;;-2.56;100.00;100466.28;5011552;28;19914;-64
2022/01/30 03:14:53;;;;;;;;;;;;;;;-2.25;100.00;100463.09;5011596;28;19913;-63
2022/01/30 03:17:18;;;;;;;;;;;;;;;-2.36;100.00;100459.47;5011483;28;19916;-63
2022/01/30 03:19:44;;;;;;;;;;;;;;;-2.17;100.00;100469.16;5011602;28;19914;-63
2022/01/30 03:22:10;;;;;;;;;;;;;;;-2.18;100.00;100478.28;5010297;28;20001;-63
2022/01/30 03:24:36;;;;;;;;;;;;;;;-2.17;100.00;100474.16;5011262;28;19936;-64
2022/01/30 03:27:03;;;;;;;;;;;;;;;-2.51;100.00;100484.69;5011497;28;20382;-64
2022/01/30 03:29:28;;;;;;;;;;;;;;;-2.97;100.00;100503.88;5011629;28;19918;-63
2022/01/30 03:31:53;;;;;;;;;;;;;;;-2.36;100.00;100494.31;5011264;28;19928;-63
2022/01/30 03:34:19;;;;;;;;;;;;;;;-2.50;100.00;100488.88;5011707;28;19956;-63
2022/01/30 03:36:44;;;;;;;;;;;;;;;-2.42;100.00;100484.16;5011121;28;19914;-63
2022/01/30 03:39:09;;;;;;;;;;;;;;;-2.37;100.00;100472.69;5011140;28;19983;-63
2022/01/30 03:41:34;;;;;;;;;;;;;;;-2.60;100.00;100462.03;5011222;28;19960;-63
2022/01/30 03:44:00;;;;;;;;;;;;;;;-2.63;100.00;100462.75;5011363;28;20438;-63
2022/01/30 03:46:25;;;;;;;;;;;;;;;-2.55;100.00;100457.16;5011214;28;19917;-63
2022/01/30 03:48:51;;;;;;;;;;;;;;;-2.71;100.00;100448.38;5011043;28;19913;-64
2022/01/30 03:51:16;;;;;;;;;;;;;;;-3.13;100.00;100449.47;5011010;28;20344;-63
2022/01/30 03:53:41;;;;;;;;;;;;;;;-3.14;100.00;100457.69;5010893;28;20020;-64
2022/01/30 03:56:07;;;;;;;;;;;;;;;-2.95;100.00;100460.03;5011187;28;19910;-64
2022/01/30 03:58:33;;;;;;;;;;;;;;;-2.71;100.00;100451.72;5011106;28;20004;-63
2022/01/30 04:00:58;;;;;;;;;;;;;;;-2.74;100.00;100454.13;5011009;28;19970;-63
2022/01/30 04:03:24;;;;;;;;;;;;;;;-3.68;100.00;100456.59;5010850;28;19920;-63
2022/01/30 04:05:49;;;;;;;;;;;;;;;-3.34;100.00;100444.59;5010777;28;19914;-63
2022/01/30 04:08:15;;;;;;;;;;;;;;;-3.65;100.00;100442.69;5009636;28;19913;-63
2022/01/30 04:10:40;;;;;;;;;;;;;;;-3.58;100.00;100439.63;5010996;28;19920;-63
2022/01/30 04:13:05;;;;;;;;;;;;;;;-3.82;100.00;100428.81;5010513;28;19924;-64
2022/01/30 04:15:31;;;;;;;;;;;;;;;-3.64;100.00;100422.00;5011287;28;20299;-64
2022/01/30 04:17:56;;;;;;;;;;;;;;;-3.91;100.00;100425.16;5010888;28;19920;-64
2022/01/30 04:20:22;;;;;;;;;;;;;;;-3.71;100.00;100427.56;5012492;28;19960;-63
2022/01/30 04:22:47;;;;;;;;;;;;;;;-3.66;100.00;100420.25;5014743;28;19914;-63
2022/01/30 04:25:13;;;;;;;;;;;;;;;-3.54;100.00;100420.69;5014794;28;19910;-63
2022/01/30 04:27:38;;;;;;;;;;;;;;;-3.39;100.00;100418.75;5014536;28;19929;-63
2022/01/30 04:30:05;;;;;;;;;;;;;;;-3.19;100.00;100419.44;5014568;28;20410;-63
2022/01/30 04:32:33;;;;;;;;;;;;;;;-3.20;100.00;100412.75;5014326;28;19995;-63
2022/01/30 04:34:59;;;;;;;;;;;;;;;-3.17;100.00;100418.66;5014255;28;19914;-64
2022/01/30 04:37:40;;;;;;;;;;;;;;;-3.19;100.00;100420.25;5014197;28;19913;-63
2022/01/30 04:40:31;;;;;;;;;;;;;;;-3.23;100.00;100427.59;5014456;28;19921;-63
2022/01/30 04:59:06;;;;;;;;;;;;;;;-3.91;100.00;100442.53;5014325;28;19921;-63
2022/01/30 05:09:35;;;;;;;;;;;;;;;-3.62;100.00;100427.88;5017490;28;19914;-61
2022/01/30 05:12:00;;;;;;;;;;;;;;;-3.61;100.00;100416.31;5012384;28;20007;-61
2022/01/30 05:14:32;;;;;;;;;;;;;;;-3.50;100.00;100415.03;5013675;28;20370;-61
2022/01/30 05:16:57;;;;;;;;;;;;;;;-4.06;100.00;100410.53;5013482;28;19913;-63
2022/01/30 05:19:23;;;;;;;;;;;;;;;-3.61;100.00;100404.75;5013539;28;20000;-63
2022/01/30 05:21:48;;;;;;;;;;;;;;;-3.88;100.00;100413.69;5012298;28;19964;-63
2022/01/30 05:24:13;;;;;;;;;;;;;;;-3.58;100.00;100414.78;5012201;28;20425;-63
2022/01/30 05:26:43;;;;;;;;;;;;;;;-3.61;100.00;100408.88;5013957;28;19914;-63
2022/01/30 05:29:08;;;;;;;;;;;;;;;-3.78;100.00;100400.81;5013259;28;20442;-63
2022/01/30 05:31:34;;;;;;;;;;;;;;;-3.72;100.00;100407.63;5012968;28;20051;-62
2022/01/30 05:33:59;;;;;;;;;;;;;;;-3.71;100.00;100411.81;5013398;28;19956;-61
2022/01/30 05:36:25;;;;;;;;;;;;;;;-3.45;100.00;100407.75;5013390;28;19963;-63
2022/01/30 05:38:50;;;;;;;;;;;;;;;-3.69;100.00;100390.38;5013462;28;19914;-63
2022/01/30 05:41:16;;;;;;;;;;;;;;;-3.68;100.00;100392.03;5013221;28;20016;-64
2022/01/30 05:43:42;;;;;;;;;;;;;;;-3.63;100.00;100379.03;5013065;28;19921;-61
2022/01/30 05:46:27;;;;;;;;;;;;;;;-3.40;100.00;100379.78;5012991;28;19913;-62
2022/01/30 05:48:52;;;;;;;;;;;;;;;-3.49;100.00;100386.94;5011713;28;20322;-61
2022/01/30 05:51:17;;;;;;;;;;;;;;;-3.58;100.00;100376.66;5013180;28;19913;-63
2022/01/30 05:53:43;;;;;;;;;;;;;;;-3.66;100.00;100381.38;5013019;28;20455;-64
2022/01/30 05:56:11;;;;;;;;;;;;;;;-3.48;100.00;100382.78;5011578;28;19929;-63
2022/01/30 05:58:36;;;;;;;;;;;;;;;-3.13;100.00;100362.47;5012650;28;19949;-63
2022/01/30 06:01:02;;;;;;;;;;;;;;;-3.70;100.00;100367.16;5013177;28;19967;-63
2022/01/30 06:03:29;;;;;;;;;;;;;;;-2.53;100.00;100348.59;5012947;28;19956;-61
2022/01/30 06:05:54;;;;;;;;;;;;;;;-1.09;100.00;100344.28;5012743;28;19913;-61
2022/01/30 06:08:39;;;;;;;;;;;;;;;-1.00;100.00;100351.97;5012788;28;20303;-61
2022/01/30 06:11:04;;;;;;;;;;;;;;;-0.11;100.00;100354.84;5012385;28;19909;-61
2022/01/30 06:13:30;;;;;;;;;;;;;;;-0.84;100.00;100356.53;5012543;28;19920;-61
2022/01/30 06:15:55;;;;;;;;;;;;;;;-0.85;100.00;100344.84;5012820;28;19937;-62
2022/01/30 06:18:21;;;;;;;;;;;;;;;0.18;100.00;100335.41;5011155;28;20433;-62
2022/01/30 06:20:46;;;;;;;;;;;;;;;2.70;100.00;100325.66;5012574;28;20023;-62
2022/01/30 06:23:11;;;;;;;;;;;;;;;2.81;100.00;100327.47;5011267;28;19920;-62
2022/01/30 06:25:36;;;;;;;;;;;;;;;3.47;100.00;100329.59;5012404;28;19914;-62
2022/01/30 06:28:02;;;;;;;;;;;;;;;2.01;100.00;100334.16;5012510;28;20264;-61
2022/01/30 06:30:28;;;;;;;;;;;;;;;3.49;100.00;100312.88;5012870;28;19913;-61
2022/01/30 06:32:53;;;;;;;;;;;;;;;1.17;100.00;100325.47;5011911;28;19913;-62
2022/01/30 06:35:18;;;;;;;;;;;;;;;0.76;100.00;100312.28;5012310;28;20318;-62
2022/01/30 06:37:44;;;;;;;;;;;;;;;-0.18;100.00;100314.72;5012372;28;19968;-62
2022/01/30 06:40:09;;;;;;;;;;;;;;;-0.36;100.00;100316.84;5010605;28;19920;-61
2022/01/30 06:42:35;;;;;;;;;;;;;;;-0.76;100.00;100307.66;5011245;28;19917;-61
2022/01/30 06:45:00;;;;;;;;;;;;;;;0.70;100.00;100304.69;5012201;28;19909;-61
2022/01/30 06:47:25;;;;;;;;;;;;;;;2.00;100.00;100309.06;5012061;28;19921;-62
2022/01/30 06:49:51;;;;;;;;;;;;;;;1.43;100.00;100296.63;5012140;28;19913;-61
2022/01/30 06:52:16;;;;;;;;;;;;;;;0.87;100.00;100281.63;5011936;28;20302;-61
2022/01/30 06:54:41;;;;;;;;;;;;;;;-0.01;100.00;100296.75;5011829;28;19914;-61
2022/01/30 06:57:07;;;;;;;;;;;;;;;2.46;100.00;100291.16;5011745;28;19913;-62
2022/01/30 06:59:32;;;;;;;;;;;;;;;5.11;93.19;100299.03;4996077;28;19945;-60
2022/01/30 07:01:58;;;;;;;;;;;;;;;5.16;81.01;100308.25;4991751;28;19918;-61
2022/01/30 07:04:23;;;;;;;;;;;;;;;4.94;82.85;100306.59;4992038;28;19914;-61
2022/01/30 07:06:48;;;;;;;;;;;;;;;5.63;77.40;100300.59;4991983;28;19953;-62
2022/01/30 07:09:14;;;;;;;;;;;;;;;2.83;85.86;100295.69;4991944;28;19914;-62
2022/01/30 07:11:39;;;;;;;;;;;;;;;3.87;82.99;100290.44;4991507;28;19913;-62
2022/01/30 07:14:04;;;;;;;;;;;;;;;4.29;84.45;100285.53;4991955;28;19917;-62
2022/01/30 07:16:29;;;;;;;;;;;;;;;6.09;76.32;100273.53;4991675;28;19972;-61
2022/01/30 07:18:55;;;;;;;;;;;;;;;6.09;73.67;100281.94;4992142;28;20037;-61
2022/01/30 07:21:20;;;;;;;;;;;;;;;5.72;70.38;100270.31;4991825;28;19918;-62
2022/01/30 07:23:45;;;;;;;;;;;;;;;3.44;91.42;100260.09;4991878;28;19991;-62
2022/01/30 07:26:11;;;;;;;;;;;;;;;5.25;90.88;100252.78;5001917;28;20395;-63
2022/01/30 07:28:36;;;;;;;;;;;;;;;5.05;89.24;100243.63;5011030;28;19920;-62
2022/01/30 07:31:01;;;;;;;;;;;;;;;1.22;100.00;100259.63;5011270;28;19913;-62
2022/01/30 07:33:27;;;;;;;;;;;;;;;1.28;100.00;100259.72;5010789;28;19928;-61
2022/01/30 07:35:54;;;;;;;;;;;;;;;0.48;100.00;100262.63;5011264;28;20390;-61
2022/01/30 07:38:21;;;;;;;;;;;;;;;0.30;100.00;100268.16;5011310;28;19909;-61
2022/01/30 07:40:46;;;;;;;;;;;;;;;0.67;100.00;100275.47;5010964;28;20040;-61
2022/01/30 07:43:11;;;;;;;;;;;;;;;1.09;100.00;100282.78;5011323;28;19917;-61
2022/01/30 07:45:37;;;;;;;;;;;;;;;0.72;100.00;100273.03;5010917;28;19913;-61
2022/01/30 07:48:02;;;;;;;;;;;;;;;2.54;100.00;100257.78;5010548;28;19941;-61
2022/01/30 07:50:28;;;;;;;;;;;;;;;2.00;100.00;100243.91;5010998;28;20007;-62
2022/01/30 07:52:53;;;;;;;;;;;;;;;2.05;100.00;100230.59;5009560;28;20393;-61
2022/01/30 07:55:19;;;;;;;;;;;;;;;2.33;100.00;100225.00;5014088;28;19913;-62
2022/01/30 07:57:45;;;;;;;;;;;;;;;2.56;100.00;100222.69;5015022;28;19913;-62
2022/01/30 08:00:10;;;;;;;;;;;;;;;1.81;100.00;100229.47;5013668;28;19913;-61
2022/01/30 08:02:35;;;;;;;;;;;;;;;1.84;100.00;100224.50;5014542;28;20375;-62
2022/01/30 08:05:01;;;;;;;;;;;;;;;2.18;100.00;100221.53;5046547;28;20003;-61
2022/01/30 08:07:27;;;;;;;;;;;;;;;2.42;100.00;100225.06;5014851;28;19909;-62
2022/01/30 08:09:52;;;;;;;;;;;;;;;2.36;100.00;100234.19;5014371;28;19983;-62
2022/01/30 08:12:19;;;;;;;;;;;;;;;2.39;100.00;100231.75;5014548;28;19913;-63
2022/01/30 08:14:44;;;;;;;;;;;;;;;2.16;100.00;100216.47;5014912;28;19914;-61
2022/01/30 08:17:10;;;;;;;;;;;;;;;1.08;100.00;100222.72;5046399;28;19913;-61
2022/01/30 08:19:35;;;;;;;;;;;;;;;1.57;100.00;100215.84;5014906;28;20071;-61
2022/01/30 08:22:02;;;;;;;;;;;;;;;1.46;100.00;100206.53;5013095;28;19972;-61
2022/01/30 08:24:27;;;;;;;;;;;;;;;1.82;100.00;100196.94;5014239;28;19914;-61
2022/01/30 08:26:53;;;;;;;;;;;;;;;1.65;100.00;100198.41;5014533;28;19928;-61
2022/01/30 08:29:18;;;;;;;;;;;;;;;1.33;100.00;100212.19;5014426;28;19918;-61
2022/01/30 08:31:43;;;;;;;;;;;;;;;1.28;100.00;100206.31;5014468;28;20032;-62
2022/01/30 08:34:09;;;;;;;;;;;;;;;1.76;100.00;100212.72;5014496;28;20452;-61
2022/01/30 08:36:34;;;;;;;;;;;;;;;2.03;100.00;100219.69;5013845;28;19921;-61
2022/01/30 08:38:59;;;;;;;;;;;;;;;1.69;100.00;100225.16;5014121;28;19963;-62
2022/01/30 08:41:24;;;;;;;;;;;;;;;1.24;100.00;100212.09;5013442;28;19917;-61
2022/01/30 08:43:50;;;;;;;;;;;;;;;1.53;100.00;100203.25;5029448;28;19920;-63
2022/01/30 08:46:15;;;;;;;;;;;;;;;1.51;100.00;100208.25;5014416;28;19971;-62
2022/01/30 08:48:41;;;;;;;;;;;;;;;1.59;100.00;100199.19;5014167;28;19917;-61
2022/01/30 08:51:06;;;;;;;;;;;;;;;1.36;100.00;100175.53;5014233;28;19924;-60
2022/01/30 08:53:31;;;;;;;;;;;;;;;1.42;100.00;100157.22;5013814;28;20023;-61
2022/01/30 08:55:57;;;;;;;;;;;;;;;1.54;100.00;100160.72;5013556;28;19941;-60
2022/01/30 08:58:22;;;;;;;;;;;;;;;1.69;100.00;100158.38;5014172;28;20401;-61
2022/01/30 09:00:47;;;;;;;;;;;;;;;1.69;100.00;100147.50;5014027;28;19981;-60
2022/01/30 09:03:13;;;;;;;;;;;;;;;1.72;100.00;100153.38;5013757;28;20426;-60
2022/01/30 09:05:38;;;;;;;;;;;;;;;2.08;100.00;100154.56;5011894;28;20008;-60
2022/01/30 09:08:04;;;;;;;;;;;;;;;1.88;100.00;100163.56;5013697;28;20011;-60
2022/01/30 09:10:30;;;;;;;;;;;;;;;1.89;100.00;100156.06;5013580;28;19913;-60
2022/01/30 09:12:55;;;;;;;;;;;;;;;1.73;100.00;100152.56;5013757;28;19917;-60
2022/01/30 09:15:20;;;;;;;;;;;;;;;1.93;100.00;100157.78;5013331;28;19913;-61
2022/01/30 09:17:46;;;;;;;;;;;;;;;1.97;100.00;100166.16;5012461;28;20050;-61
2022/01/30 09:20:12;;;;;;;;;;;;;;;2.12;100.00;100149.56;5013448;28;19920;-61
2022/01/30 09:22:37;;;;;;;;;;;;;;;2.27;100.00;100163.91;5013623;28;20314;-61
2022/01/30 09:25:03;;;;;;;;;;;;;;;2.18;100.00;100152.13;5013266;28;19917;-61
2022/01/30 09:27:28;;;;;;;;;;;;;;;2.69;100.00;100135.78;5013462;28;19913;-61
2022/01/30 09:29:54;;;;;;;;;;;;;;;2.48;100.00;100124.78;5013520;28;20300;-61
2022/01/30 09:32:19;;;;;;;;;;;;;;;2.68;100.00;100132.44;5013127;28;19914;-60
2022/01/30 09:34:44;;;;;;;;;;;;;;;2.55;100.00;100124.00;5013040;28;19913;-61
2022/01/30 09:37:10;;;;;;;;;;;;;;;2.54;100.00;100121.47;5012999;28;19937;-60
2022/01/30 09:39:36;;;;;;;;;;;;;;;2.33;100.00;100118.81;5012762;28;20098;-61
2022/01/30 09:42:02;;;;;;;;;;;;;;;2.57;100.00;100121.50;5013098;28;19913;-61
2022/01/30 09:44:27;;;;;;;;;;;;;;;2.44;100.00;100114.72;5013061;28;20315;-61
2022/01/30 09:46:53;;;;;;;;;;;;;;;2.77;100.00;100104.06;5013504;28;20004;-61
2022/01/30 09:49:23;;;;;;;;;;;;;;;2.89;100.00;100099.09;5012915;28;19913;-61
2022/01/30 09:51:48;;;;;;;;;;;;;;;3.11;100.00;100096.66;5012925;28;20299;-61
2022/01/30 09:54:13;;;;;;;;;;;;;;;3.15;100.00;100095.03;5004951;28;19914;-61
2022/01/30 09:56:39;;;;;;;;;;;;;;;3.13;100.00;100099.22;4993244;28;19924;-62
2022/01/30 09:59:05;;;;;;;;;;;;;;;2.77;100.00;100083.97;4993160;28;19997;-61
2022/01/30 10:01:32;;;;;;;;;;;;;;;3.04;100.00;100071.53;4991541;28;19914;-61
2022/01/30 10:03:58;;;;;;;;;;;;;;;2.97;100.00;100085.72;4993037;28;20000;-61
2022/01/30 10:06:28;;;;;;;;;;;;;;;3.28;100.00;100069.09;4991722;28;19952;-61
2022/01/30 10:08:56;;;;;;;;;;;;;;;3.19;100.00;100067.41;5007869;28;19913;-61
2022/01/30 10:11:37;;;;;;;;;;;;;;;2.65;100.00;100006.97;4993011;28;19920;-61
2022/01/30 10:14:14;;;;;;;;;;;;;;;3.07;100.00;100048.97;4993138;28;19921;-61
2022/01/30 10:16:43;;;;;;;;;;;;;;;3.28;100.00;100049.88;4992703;28;19921;-61
2022/01/30 10:19:12;;;;;;;;;;;;;;;3.20;100.00;100041.47;4992281;28;20327;-61
2022/01/30 10:21:39;;;;;;;;;;;;;;;3.54;100.00;100030.63;4992986;28;19917;-60
2022/01/30 10:24:22;;;;;;;;;;;;;;;3.37;100.00;100034.78;4992885;28;20056;-61
2022/01/30 10:26:48;;;;;;;;;;;;;;;3.50;100.00;100028.97;4992932;28;19913;-61
2022/01/30 10:29:16;;;;;;;;;;;;;;;3.67;100.00;100018.06;4992791;28;20005;-61
2022/01/30 10:32:00;;;;;;;;;;;;;;;3.91;100.00;100015.56;4992646;28;19960;-61
2022/01/30 10:34:29;;;;;;;;;;;;;;;3.76;100.00;100013.91;4992787;28;20388;-61
2022/01/30 10:37:11;;;;;;;;;;;;;;;3.71;100.00;100014.72;4992546;28;19921;-61
2022/01/30 10:39:52;;;;;;;;;;;;;;;3.70;100.00;100006.34;4992397;28;19957;-61
2022/01/30 10:42:32;;;;;;;;;;;;;;;3.60;100.00;99999.66;4991140;28;19917;-60
2022/01/30 10:44:57;;;;;;;;;;;;;;;3.98;100.00;99992.91;4991215;28;19914;-61
2022/01/30 10:47:23;;;;;;;;;;;;;;;4.14;100.00;99986.19;4992217;28;19920;-61
2022/01/30 10:49:49;;;;;;;;;;;;;;;3.79;100.00;99982.88;4992436;28;20018;-62
2022/01/30 10:52:15;;;;;;;;;;;;;;;4.02;100.00;99971.13;4992085;28;19945;-61
2022/01/30 10:54:40;;;;;;;;;;;;;;;3.60;100.00;99978.69;4991629;28;20315;-62
2022/01/30 10:57:06;;;;;;;;;;;;;;;4.09;100.00;99955.19;4992107;28;20368;-61
2022/01/30 10:59:32;;;;;;;;;;;;;;;4.86;98.39;99953.19;4992309;28;19929;-61
2022/01/30 11:02:10;;;;;;;;;;;;;;;5.00;91.03;99940.50;4992172;28;19921;-61
2022/01/30 11:04:35;;;;;;;;;;;;;;;5.33;85.83;99929.38;4992225;28;20012;-62
2022/01/30 11:07:01;;;;;;;;;;;;;;;5.32;82.92;99926.00;4991968;28;20421;-61
2022/01/30 11:09:33;;;;;;;;;;;;;;;5.16;79.82;99910.19;4992228;28;20439;-61
2022/01/30 11:12:02;;;;;;;;;;;;;;;5.38;80.45;99890.69;4991726;28;20315;-62
2022/01/30 11:14:37;;;;;;;;;;;;;;;5.39;79.49;99889.81;4991962;28;19917;-62
2022/01/30 11:17:04;;;;;;;;;;;;;;;5.24;76.95;99883.25;4991766;28;19920;-61
2022/01/30 11:19:30;;;;;;;;;;;;;;;5.37;75.34;99883.13;4991880;28;19914;-61
2022/01/30 11:22:09;;;;;;;;;;;;;;;6.19;72.46;99880.63;4993678;28;20547;-62
2022/01/30 11:24:38;;;;;;;;;;;;;;;6.91;70.74;99872.88;5011327;28;20000;-61
2022/01/30 11:27:04;;;;;;;;;;;;;;;6.40;68.84;99865.22;5011199;28;19924;-61
2022/01/30 11:29:29;;;;;;;;;;;;;;;6.91;66.23;99859.44;5010806;28;19913;-62
2022/01/30 11:31:54;;;;;;;;;;;;;;;6.66;66.36;99861.47;5010946;28;19920;-62
2022/01/30 11:34:21;;;;;;;;;;;;;;;6.96;66.16;99862.72;5011196;28;19963;-62
2022/01/30 11:36:48;;;;;;;;;;;;;;;7.48;65.46;99845.00;5010879;28;19924;-63
2022/01/30 11:39:15;;;;;;;;;;;;;;;7.25;63.96;99842.03;5011195;28;19921;-61
2022/01/30 11:41:40;;;;;;;;;;;;;;;7.34;62.71;99836.81;5011144;28;19913;-62
2022/01/30 11:44:18;;;;;;;;;;;;;;;7.20;64.28;99828.63;5011405;28;19968;-62
2022/01/30 11:47:03;;;;;;;;;;;;;;;7.54;64.39;99819.59;5011001;28;20016;-62
2022/01/30 11:49:49;;;;;;;;;;;;;;;6.51;65.04;99820.44;5003264;28;19917;-61
2022/01/30 11:52:15;;;;;;;;;;;;;;;7.12;63.63;99797.59;5011252;28;20035;-62
2022/01/30 11:54:40;;;;;;;;;;;;;;;7.26;63.98;99783.00;5010662;28;19913;-62
2022/01/30 11:57:25;;;;;;;;;;;;;;;7.56;62.82;99797.63;5010805;28;20303;-62
2022/01/30 11:59:52;;;;;;;;;;;;;;;7.75;61.77;99809.06;5003530;28;19963;-62
2022/01/30 12:02:21;;;;;;;;;;;;;;;8.14;60.08;99790.53;5011128;28;19924;-62
2022/01/30 12:05:06;;;;;;;;;;;;;;;7.83;60.54;99794.56;5011019;28;19928;-61
2022/01/30 12:07:35;;;;;;;;;;;;;;;8.54;58.96;99806.56;5009985;28;19936;-62
2022/01/30 12:10:15;;;;;;;;;;;;;;;7.70;59.67;99801.59;5010896;28;19917;-63
2022/01/30 12:12:47;;;;;;;;;;;;;;;8.08;59.24;99779.72;5010793;28;19913;-62
2022/01/30 12:15:31;;;;;;;;;;;;;;;8.37;58.43;99770.66;5010876;28;19914;-63
2022/01/30 12:17:56;;;;;;;;;;;;;;;8.04;57.80;99765.47;5010651;28;19928;-63
2022/01/30 12:20:22;;;;;;;;;;;;;;;7.96;57.46;99759.72;5010636;28;19918;-62
2022/01/30 12:22:48;;;;;;;;;;;;;;;7.82;58.18;99748.19;5010400;28;19945;-64
2022/01/30 12:25:25;;;;;;;;;;;;;;;8.62;56.85;99759.09;5025976;28;19920;-63
2022/01/30 12:27:51;;;;;;;;;;;;;;;7.93;56.10;99754.72;5009859;28;19921;-63
2022/01/30 12:30:52;;;;;;;;;;;;;;;8.29;56.87;99738.75;5010916;28;19983;-63
2022/01/30 12:33:31;;;;;;;;;;;;;;;8.29;56.27;99741.31;5007998;28;19917;-63
2022/01/30 12:35:57;;;;;;;;;;;;;;;7.45;57.28;99729.53;5010249;28;19917;-62
2022/01/30 12:38:34;;;;;;;;;;;;;;;7.44;59.35;99737.16;5010489;28;19910;-62
2022/01/30 12:41:01;;;;;;;;;;;;;;;7.85;58.30;99732.09;5011211;28;20004;-62
2022/01/30 12:43:31;;;;;;;;;;;;;;;7.43;58.27;99735.50;5014208;28;19913;-62
2022/01/30 12:46:09;;;;;;;;;;;;;;;7.88;58.36;99729.53;5014225;28;19913;-63
2022/01/30 12:48:35;;;;;;;;;;;;;;;7.64;59.08;99712.31;5014109;28;19924;-62
2022/01/30 12:51:05;;;;;;;;;;;;;;;7.49;59.90;99718.50;5013792;28;19910;-62
2022/01/30 12:53:36;;;;;;;;;;;;;;;7.84;58.60;99711.03;5013660;28;19913;-62
2022/01/30 12:56:01;;;;;;;;;;;;;;;8.54;58.48;99717.91;5014018;28;20486;-62
2022/01/30 12:58:30;;;;;;;;;;;;;;;9.02;56.21;99705.69;5013938;28;19917;-62
2022/01/30 13:01:12;;;;;;;;;;;;;;;9.03;55.88;99691.31;5013950;28;20375;-62
2022/01/30 13:03:38;;;;;;;;;;;;;;;8.89;55.44;99709.44;5013091;28;19917;-62
2022/01/30 13:06:03;;;;;;;;;;;;;;;7.66;58.32;99711.44;5013430;28;19944;-62
2022/01/30 13:08:47;;;;;;;;;;;;;;;8.25;58.12;99692.44;5013700;28;19959;-62
2022/01/30 13:11:13;;;;;;;;;;;;;;;8.07;59.12;99689.44;5013552;28;19924;-64
2022/01/30 13:13:55;;;;;;;;;;;;;;;7.98;58.46;99692.19;5013409;28;19919;-63
2022/01/30 13:16:22;;;;;;;;;;;;;;;9.40;55.65;99686.91;5013251;28;19921;-61
2022/01/30 13:18:47;;;;;;;;;;;;;;;9.75;54.53;99688.44;5012285;28;20383;-61
2022/01/30 13:21:13;;;;;;;;;;;;;;;10.18;53.68;99687.13;5013179;28;20065;-61
2022/01/30 13:23:38;;;;;;;;;;;;;;;10.69;53.10;99671.94;5013942;28;19920;-62
2022/01/30 13:26:06;;;;;;;;;;;;;;;11.00;52.95;99661.53;5013396;28;20303;-62
2022/01/30 13:28:31;;;;;;;;;;;;;;;12.34;49.14;99647.97;5013201;28;19921;-63
2022/01/30 13:31:10;;;;;;;;;;;;;;;11.81;47.98;99643.25;5013401;28;19913;-63
2022/01/30 13:33:36;;;;;;;;;;;;;;;13.94;47.71;99636.63;5013168;28;19914;-62
2022/01/30 13:36:01;;;;;;;;;;;;;;;14.60;45.01;99630.81;5013258;28;19920;-62
2022/01/30 13:38:27;;;;;;;;;;;;;;;13.84;45.70;99625.19;5013106;28;20398;-62